sensor_id;sensor_type;location;lat;lon;timestamp;pressure;altitude;pressure_sealevel;temperature;humidity
12666;BME280;58531;59.050;17.416;2023-02-19T00:00:56;99616.69;;;-2.52;75.75
12666;BME280;58531;59.050;17.416;2023-02-19T00:03:23;99620.03;;;-2.45;76.11
12666;BME280;58531;59.050;17.416;2023-02-19T00:05:50;99626.38;;;-2.56;76.58
12666;BME280;58531;59.050;17.416;2023-02-19T00:08:16;99624.50;;;-2.59;76.92
12666;BME280;58531;59.050;17.416;2023-02-19T00:10:45;99619.63;;;-2.64;77.80
12666;BME280;58531;59.050;17.416;2023-02-19T00:13:11;99627.88;;;-2.59;76.52
12666;BME280;58531;59.050;17.416;2023-02-19T00:15:39;99629.34;;;-2.61;77.58
12666;BME280;58531;59.050;17.416;2023-02-19T00:18:06;99632.38;;;-2.56;75.92
12666;BME280;58531;59.050;17.416;2023-02-19T00:20:32;99636.81;;;-2.56;76.98
12666;BME280;58531;59.050;17.416;2023-02-19T00:22:59;99621.91;;;-2.45;76.65
12666;BME280;58531;59.050;17.416;2023-02-19T00:25:26;99612.59;;;-2.36;75.98
12666;BME280;58531;59.050;17.416;2023-02-19T00:27:54;99619.66;;;-2.47;76.00
12666;BME280;58531;59.050;17.416;2023-02-19T00:30:21;99623.41;;;-2.51;76.54
12666;BME280;58531;59.050;17.416;2023-02-19T00:32:49;99624.13;;;-2.54;76.41
12666;BME280;58531;59.050;17.416;2023-02-19T00:35:16;99624.88;;;-2.57;77.32
12666;BME280;58531;59.050;17.416;2023-02-19T00:37:43;99621.56;;;-2.40;76.83
12666;BME280;58531;59.050;17.416;2023-02-19T00:40:10;99624.53;;;-2.35;76.14
12666;BME280;58531;59.050;17.416;2023-02-19T00:42:37;99630.88;;;-2.43;76.03
12666;BME280;58531;59.050;17.416;2023-02-19T00:45:06;99627.88;;;-2.45;76.57
12666;BME280;58531;59.050;17.416;2023-02-19T00:47:33;99628.63;;;-2.24;75.25
12666;BME280;58531;59.050;17.416;2023-02-19T00:49:59;99630.50;;;-2.28;74.69
12666;BME280;58531;59.050;17.416;2023-02-19T00:52:26;99629.78;;;-2.32;76.37
12666;BME280;58531;59.050;17.416;2023-02-19T00:54:53;99626.38;;;-2.49;76.63
12666;BME280;58531;59.050;17.416;2023-02-19T00:57:20;99639.41;;;-2.63;77.42
12666;BME280;58531;59.050;17.416;2023-02-19T00:59:46;99634.56;;;-2.72;79.50
12666;BME280;58531;59.050;17.416;2023-02-19T01:02:15;99633.78;;;-2.72;78.30
12666;BME280;58531;59.050;17.416;2023-02-19T01:04:41;99643.50;;;-2.83;79.02
12666;BME280;58531;59.050;17.416;2023-02-19T01:07:08;99639.00;;;-2.86;79.31
12666;BME280;58531;59.050;17.416;2023-02-19T01:09:35;99640.13;;;-2.73;79.08
12666;BME280;58531;59.050;17.416;2023-02-19T01:12:02;99640.19;;;-2.59;77.48
12666;BME280;58531;59.050;17.416;2023-02-19T01:14:29;99647.63;;;-2.72;78.28
12666;BME280;58531;59.050;17.416;2023-02-19T01:16:56;99635.25;;;-2.92;79.50
12666;BME280;58531;59.050;17.416;2023-02-19T01:19:24;99641.63;;;-2.86;78.00
12666;BME280;58531;59.050;17.416;2023-02-19T01:21:51;99633.84;;;-2.55;75.05
12666;BME280;58531;59.050;17.416;2023-02-19T01:24:18;99627.16;;;-2.38;74.56
12666;BME280;58531;59.050;17.416;2023-02-19T01:26:45;99636.13;;;-2.39;74.04
12666;BME280;58531;59.050;17.416;2023-02-19T01:29:11;99629.78;;;-2.38;74.53
12666;BME280;58531;59.050;17.416;2023-02-19T01:31:39;99633.88;;;-2.44;74.40
12666;BME280;58531;59.050;17.416;2023-02-19T01:34:08;99623.00;;;-2.60;77.00
12666;BME280;58531;59.050;17.416;2023-02-19T01:36:37;99629.38;;;-2.54;74.63
12666;BME280;58531;59.050;17.416;2023-02-19T01:39:05;99621.88;;;-2.66;75.27
12666;BME280;58531;59.050;17.416;2023-02-19T01:41:36;99618.50;;;-2.74;75.63
12666;BME280;58531;59.050;17.416;2023-02-19T01:44:05;99611.75;;;-2.92;76.56
12666;BME280;58531;59.050;17.416;2023-02-19T01:46:34;99618.09;;;-2.93;77.15
12666;BME280;58531;59.050;17.416;2023-02-19T01:49:03;99615.47;;;-2.79;75.42
12666;BME280;58531;59.050;17.416;2023-02-19T01:51:32;99613.63;;;-2.75;75.30
12666;BME280;58531;59.050;17.416;2023-02-19T01:54:04;99609.19;;;-2.64;73.90
12666;BME280;58531;59.050;17.416;2023-02-19T01:56:33;99615.16;;;-2.60;73.84
12666;BME280;58531;59.050;17.416;2023-02-19T01:59:03;99620.72;;;-2.72;75.21
12666;BME280;58531;59.050;17.416;2023-02-19T02:01:31;99623.34;;;-2.72;73.98
12666;BME280;58531;59.050;17.416;2023-02-19T02:03:58;99611.03;;;-2.72;74.36
12666;BME280;58531;59.050;17.416;2023-02-19T02:06:28;99612.91;;;-2.65;73.30
12666;BME280;58531;59.050;17.416;2023-02-19T02:08:57;99612.19;;;-2.48;72.28
12666;BME280;58531;59.050;17.416;2023-02-19T02:11:46;99616.31;;;-2.47;71.60
12666;BME280;58531;59.050;17.416;2023-02-19T02:14:14;99615.19;;;-2.53;72.02
12666;BME280;58531;59.050;17.416;2023-02-19T02:16:48;99603.94;;;-2.71;73.17
12666;BME280;58531;59.050;17.416;2023-02-19T02:19:34;99617.00;;;-2.71;73.33
12666;BME280;58531;59.050;17.416;2023-02-19T02:22:09;99609.88;;;-2.88;74.23
12666;BME280;58531;59.050;17.416;2023-02-19T02:24:53;99610.56;;;-3.05;76.08
12666;BME280;58531;59.050;17.416;2023-02-19T02:27:38;99609.84;;;-3.02;75.50
12666;BME280;58531;59.050;17.416;2023-02-19T02:30:27;99607.59;;;-2.97;74.81
12666;BME280;58531;59.050;17.416;2023-02-19T02:33:00;99611.34;;;-2.98;75.78
12666;BME280;58531;59.050;17.416;2023-02-19T02:35:41;99609.50;;;-2.97;75.94
12666;BME280;58531;59.050;17.416;2023-02-19T02:38:10;99609.88;;;-2.85;74.52
12666;BME280;58531;59.050;17.416;2023-02-19T02:40:41;99604.66;;;-2.88;74.25
12666;BME280;58531;59.050;17.416;2023-02-19T02:43:09;99603.94;;;-2.85;76.08
12666;BME280;58531;59.050;17.416;2023-02-19T02:45:37;99602.38;;;-3.00;75.80
12666;BME280;58531;59.050;17.416;2023-02-19T02:48:09;99606.44;;;-3.13;77.72
12666;BME280;58531;59.050;17.416;2023-02-19T02:50:41;99608.28;;;-3.17;76.50
12666;BME280;58531;59.050;17.416;2023-02-19T02:53:14;99604.50;;;-3.30;77.71
12666;BME280;58531;59.050;17.416;2023-02-19T02:56:01;99608.56;;;-3.43;79.44
12666;BME280;58531;59.050;17.416;2023-02-19T02:58:30;99615.28;;;-3.39;78.61
12666;BME280;58531;59.050;17.416;2023-02-19T03:01:03;99622.38;;;-3.39;79.13
12666;BME280;58531;59.050;17.416;2023-02-19T03:03:51;99614.50;;;-3.46;79.75
12666;BME280;58531;59.050;17.416;2023-02-19T03:06:21;99615.63;;;-3.44;79.55
12666;BME280;58531;59.050;17.416;2023-02-19T03:08:54;99607.81;;;-3.40;79.46
12666;BME280;58531;59.050;17.416;2023-02-19T03:11:23;99614.19;;;-3.31;78.64
12666;BME280;58531;59.050;17.416;2023-02-19T03:14:11;99614.94;;;-3.37;79.73
12666;BME280;58531;59.050;17.416;2023-02-19T03:17:04;99622.47;;;-3.11;77.31
12666;BME280;58531;59.050;17.416;2023-02-19T03:20:02;99632.13;;;-3.22;78.05
12666;BME280;58531;59.050;17.416;2023-02-19T03:22:33;99637.41;;;-3.08;77.18
12666;BME280;58531;59.050;17.416;2023-02-19T03:25:06;99625.81;;;-3.18;77.17
12666;BME280;58531;59.050;17.416;2023-02-19T03:27:55;99640.34;;;-3.24;78.21
12666;BME280;58531;59.050;17.416;2023-02-19T03:30:28;99635.47;;;-3.29;78.29
12666;BME280;58531;59.050;17.416;2023-02-19T03:32:59;99642.56;;;-3.22;78.74
12666;BME280;58531;59.050;17.416;2023-02-19T03:35:29;99636.59;;;-3.26;77.63
12666;BME280;58531;59.050;17.416;2023-02-19T03:38:01;99640.00;;;-3.19;77.63
12666;BME280;58531;59.050;17.416;2023-02-19T03:40:35;99638.88;;;-3.14;76.97
12666;BME280;58531;59.050;17.416;2023-02-19T03:43:13;99649.25;;;-3.28;79.11
12666;BME280;58531;59.050;17.416;2023-02-19T03:45:46;99654.47;;;-3.28;77.98
12666;BME280;58531;59.050;17.416;2023-02-19T03:48:23;99657.53;;;-3.12;77.47
12666;BME280;58531;59.050;17.416;2023-02-19T03:50:59;99663.53;;;-3.08;76.79
12666;BME280;58531;59.050;17.416;2023-02-19T03:53:32;99650.88;;;-2.99;75.80
12666;BME280;58531;59.050;17.416;2023-02-19T03:56:06;99653.53;;;-2.92;75.06
12666;BME280;58531;59.050;17.416;2023-02-19T03:58:40;99662.41;;;-3.04;76.16
12666;BME280;58531;59.050;17.416;2023-02-19T04:01:13;99662.78;;;-3.09;76.21
12666;BME280;58531;59.050;17.416;2023-02-19T04:03:47;99671.00;;;-3.03;75.37
12666;BME280;58531;59.050;17.416;2023-02-19T04:06:21;99666.13;;;-3.05;75.86
12666;BME280;58531;59.050;17.416;2023-02-19T04:08:52;99670.63;;;-3.09;75.88
12666;BME280;58531;59.050;17.416;2023-02-19T04:11:20;99662.00;;;-3.16;76.34
12666;BME280;58531;59.050;17.416;2023-02-19T04:13:54;99677.69;;;-3.09;75.90
12666;BME280;58531;59.050;17.416;2023-02-19T04:16:26;99671.00;;;-3.03;75.35
12666;BME280;58531;59.050;17.416;2023-02-19T04:18:58;99684.41;;;-3.12;75.94
12666;BME280;58531;59.050;17.416;2023-02-19T04:21:29;99682.50;;;-3.22;76.82
12666;BME280;58531;59.050;17.416;2023-02-19T04:23:59;99684.38;;;-3.19;76.90
12666;BME280;58531;59.050;17.416;2023-02-19T04:26:28;99679.97;;;-3.08;74.88
12666;BME280;58531;59.050;17.416;2023-02-19T04:28:55;99677.41;;;-2.90;74.92
12666;BME280;58531;59.050;17.416;2023-02-19T04:31:23;99686.28;;;-3.05;75.93
12666;BME280;58531;59.050;17.416;2023-02-19T04:33:51;99686.34;;;-2.98;74.36
12666;BME280;58531;59.050;17.416;2023-02-19T04:36:20;99686.72;;;-2.96;74.54
12666;BME280;58531;59.050;17.416;2023-02-19T04:38:46;99688.91;;;-3.05;74.74
12666;BME280;58531;59.050;17.416;2023-02-19T04:41:13;99682.19;;;-3.03;74.71
12666;BME280;58531;59.050;17.416;2023-02-19T04:43:40;99689.63;;;-3.08;75.93
12666;BME280;58531;59.050;17.416;2023-02-19T04:46:07;99693.38;;;-3.09;74.68
12666;BME280;58531;59.050;17.416;2023-02-19T04:48:34;99686.59;;;-3.17;74.99
12666;BME280;58531;59.050;17.416;2023-02-19T04:51:04;99691.84;;;-3.14;74.63
12666;BME280;58531;59.050;17.416;2023-02-19T04:53:32;99699.34;;;-3.02;73.74
12666;BME280;58531;59.050;17.416;2023-02-19T04:56:05;99700.44;;;-3.13;76.02
12666;BME280;58531;59.050;17.416;2023-02-19T04:58:32;99701.50;;;-3.25;75.73
12666;BME280;58531;59.050;17.416;2023-02-19T05:00:59;99703.69;;;-3.30;75.15
12666;BME280;58531;59.050;17.416;2023-02-19T05:03:26;99707.41;;;-3.31;76.30
12666;BME280;58531;59.050;17.416;2023-02-19T05:05:53;99689.97;;;-3.17;75.55
12666;BME280;58531;59.050;17.416;2023-02-19T05:08:20;99694.84;;;-3.08;73.95
12666;BME280;58531;59.050;17.416;2023-02-19T05:10:48;99692.56;;;-3.20;75.34
12666;BME280;58531;59.050;17.416;2023-02-19T05:13:15;99699.94;;;-3.33;75.96
12666;BME280;58531;59.050;17.416;2023-02-19T05:15:42;99688.72;;;-3.40;76.17
12666;BME280;58531;59.050;17.416;2023-02-19T05:18:08;99693.72;;;-3.14;74.58
12666;BME280;58531;59.050;17.416;2023-02-19T05:20:35;99689.59;;;-3.15;73.91
12666;BME280;58531;59.050;17.416;2023-02-19T05:23:02;99679.84;;;-3.29;74.86
12666;BME280;58531;59.050;17.416;2023-02-19T05:25:29;99689.63;;;-3.08;73.90
12666;BME280;58531;59.050;17.416;2023-02-19T05:27:57;99692.19;;;-3.19;75.33
12666;BME280;58531;59.050;17.416;2023-02-19T05:30:38;99697.81;;;-3.17;74.32
12666;BME280;58531;59.050;17.416;2023-02-19T05:33:04;99701.50;;;-3.21;74.44
12666;BME280;58531;59.050;17.416;2023-02-19T05:35:31;99712.66;;;-3.28;75.55
12666;BME280;58531;59.050;17.416;2023-02-19T05:37:58;99705.94;;;-3.32;75.08
12666;BME280;58531;59.050;17.416;2023-02-19T05:40:25;99711.16;;;-3.32;76.14
12666;BME280;58531;59.050;17.416;2023-02-19T05:42:52;99714.84;;;-3.37;75.15
12666;BME280;58531;59.050;17.416;2023-02-19T05:45:20;99710.72;;;-3.41;75.34
12666;BME280;58531;59.050;17.416;2023-02-19T05:47:47;99710.28;;;-3.50;76.87
12666;BME280;58531;59.050;17.416;2023-02-19T05:50:13;99718.22;;;-3.29;74.33
12666;BME280;58531;59.050;17.416;2023-02-19T05:52:40;99716.31;;;-3.39;75.36
12666;BME280;58531;59.050;17.416;2023-02-19T05:55:08;99721.59;;;-3.32;75.19
12666;BME280;58531;59.050;17.416;2023-02-19T05:57:39;99722.31;;;-3.35;75.68
12666;BME280;58531;59.050;17.416;2023-02-19T06:00:06;99727.16;;;-3.34;75.62
12666;BME280;58531;59.050;17.416;2023-02-19T06:02:35;99723.09;;;-3.28;76.07
12666;BME280;58531;59.050;17.416;2023-02-19T06:05:02;99726.44;;;-3.27;75.25
12666;BME280;58531;59.050;17.416;2023-02-19T06:07:29;99741.00;;;-3.26;74.86
12666;BME280;58531;59.050;17.416;2023-02-19T06:09:56;99745.09;;;-3.29;74.31
12666;BME280;58531;59.050;17.416;2023-02-19T06:12:23;99747.66;;;-3.36;75.35
12666;BME280;58531;59.050;17.416;2023-02-19T06:14:50;99749.09;;;-3.42;76.48
12666;BME280;58531;59.050;17.416;2023-02-19T06:17:17;99751.75;;;-3.38;76.13
12666;BME280;58531;59.050;17.416;2023-02-19T06:19:45;99752.91;;;-3.32;76.03
12666;BME280;58531;59.050;17.416;2023-02-19T06:22:13;99748.81;;;-3.33;75.62
12666;BME280;58531;59.050;17.416;2023-02-19T06:24:39;99755.84;;;-3.37;75.65
12666;BME280;58531;59.050;17.416;2023-02-19T06:27:07;99756.19;;;-3.42;75.83
12666;BME280;58531;59.050;17.416;2023-02-19T06:29:34;99761.81;;;-3.37;76.51
12666;BME280;58531;59.050;17.416;2023-02-19T06:32:02;99760.25;;;-3.48;76.55
12666;BME280;58531;59.050;17.416;2023-02-19T06:34:29;99760.31;;;-3.41;76.04
12666;BME280;58531;59.050;17.416;2023-02-19T06:36:58;99759.09;;;-3.51;77.60
12666;BME280;58531;59.050;17.416;2023-02-19T06:39:26;99757.69;;;-3.41;76.24
12666;BME280;58531;59.050;17.416;2023-02-19T06:41:54;99767.09;;;-3.30;75.61
12666;BME280;58531;59.050;17.416;2023-02-19T06:44:21;99767.41;;;-3.38;76.25
12666;BME280;58531;59.050;17.416;2023-02-19T06:46:48;99767.75;;;-3.43;77.57
12666;BME280;58531;59.050;17.416;2023-02-19T06:49:14;99770.63;;;-3.52;77.70
12666;BME280;58531;59.050;17.416;2023-02-19T06:51:42;99783.72;;;-3.48;77.28
12666;BME280;58531;59.050;17.416;2023-02-19T06:54:10;99776.34;;;-3.39;77.33
12666;BME280;58531;59.050;17.416;2023-02-19T06:56:38;99785.75;;;-3.24;75.35
12666;BME280;58531;59.050;17.416;2023-02-19T06:59:07;99788.19;;;-2.98;73.18
12666;BME280;58531;59.050;17.416;2023-02-19T07:01:35;99790.47;;;-2.90;72.72
12666;BME280;58531;59.050;17.416;2023-02-19T07:04:03;99792.31;;;-2.94;73.48
12666;BME280;58531;59.050;17.416;2023-02-19T07:06:30;99793.78;;;-2.96;73.80
12666;BME280;58531;59.050;17.416;2023-02-19T07:08:58;99791.22;;;-2.89;73.38
12666;BME280;58531;59.050;17.416;2023-02-19T07:11:29;99793.16;;;-2.76;72.71
12666;BME280;58531;59.050;17.416;2023-02-19T07:13:56;99786.81;;;-2.71;71.10
12666;BME280;58531;59.050;17.416;2023-02-19T07:16:24;99807.38;;;-2.70;72.01
12666;BME280;58531;59.050;17.416;2023-02-19T07:18:52;99802.16;;;-2.70;71.68
12666;BME280;58531;59.050;17.416;2023-02-19T07:21:21;99807.03;;;-2.61;70.58
12666;BME280;58531;59.050;17.416;2023-02-19T07:23:48;99801.50;;;-2.49;70.60
12666;BME280;58531;59.050;17.416;2023-02-19T07:26:16;99810.84;;;-2.48;71.49
12666;BME280;58531;59.050;17.416;2023-02-19T07:28:46;99806.72;;;-2.46;70.91
12666;BME280;58531;59.050;17.416;2023-02-19T07:31:14;99812.03;;;-2.35;69.96
12666;BME280;58531;59.050;17.416;2023-02-19T07:33:42;99818.00;;;-2.28;69.16
12666;BME280;58531;59.050;17.416;2023-02-19T07:36:09;99815.44;;;-2.21;68.68
12666;BME280;58531;59.050;17.416;2023-02-19T07:38:37;99816.19;;;-2.14;68.77
12666;BME280;58531;59.050;17.416;2023-02-19T07:41:04;99825.53;;;-2.13;69.17
12666;BME280;58531;59.050;17.416;2023-02-19T07:43:32;99814.72;;;-2.11;69.07
12666;BME280;58531;59.050;17.416;2023-02-19T07:46:03;99821.44;;;-2.10;68.82
12666;BME280;58531;59.050;17.416;2023-02-19T07:48:30;99824.47;;;-1.94;67.73
12666;BME280;58531;59.050;17.416;2023-02-19T07:50:58;99820.00;;;-1.94;67.71
12666;BME280;58531;59.050;17.416;2023-02-19T07:53:26;99823.00;;;-1.92;66.90
12666;BME280;58531;59.050;17.416;2023-02-19T07:55:58;99819.25;;;-1.91;67.38
12666;BME280;58531;59.050;17.416;2023-02-19T07:58:26;99821.16;;;-1.81;66.35
12666;BME280;58531;59.050;17.416;2023-02-19T08:00:53;99834.97;;;-1.77;67.04
12666;BME280;58531;59.050;17.416;2023-02-19T08:03:21;99825.63;;;-1.78;66.83
12666;BME280;58531;59.050;17.416;2023-02-19T08:05:47;99827.50;;;-1.75;66.99
12666;BME280;58531;59.050;17.416;2023-02-19T08:08:18;99828.22;;;-1.78;67.76
12666;BME280;58531;59.050;17.416;2023-02-19T08:10:44;99830.13;;;-1.68;66.23
12666;BME280;58531;59.050;17.416;2023-02-19T08:13:29;99832.78;;;-1.54;65.30
12666;BME280;58531;59.050;17.416;2023-02-19T08:16:09;99838.78;;;-1.53;64.88
12666;BME280;58531;59.050;17.416;2023-02-19T08:18:38;99833.53;;;-1.39;63.38
12666;BME280;58531;59.050;17.416;2023-02-19T08:21:05;99829.03;;;-1.46;65.07
12666;BME280;58531;59.050;17.416;2023-02-19T08:23:31;99835.03;;;-1.35;63.24
12666;BME280;58531;59.050;17.416;2023-02-19T08:25:59;99837.66;;;-1.31;64.12
12666;BME280;58531;59.050;17.416;2023-02-19T08:28:27;99841.75;;;-1.27;63.04
12666;BME280;58531;59.050;17.416;2023-02-19T08:30:58;99838.00;;;-1.26;64.04
12666;BME280;58531;59.050;17.416;2023-02-19T08:33:26;99830.53;;;-1.17;62.11
12666;BME280;58531;59.050;17.416;2023-02-19T08:35:54;99840.28;;;-1.11;62.46
12666;BME280;58531;59.050;17.416;2023-02-19T08:38:21;99847.00;;;-1.13;63.71
12666;BME280;58531;59.050;17.416;2023-02-19T08:40:48;99846.25;;;-1.10;62.75
12666;BME280;58531;59.050;17.416;2023-02-19T08:43:16;99843.28;;;-1.09;63.30
12666;BME280;58531;59.050;17.416;2023-02-19T08:45:44;99843.25;;;-1.05;62.78
12666;BME280;58531;59.050;17.416;2023-02-19T08:48:13;99848.50;;;-0.98;62.17
12666;BME280;58531;59.050;17.416;2023-02-19T08:50:40;99852.25;;;-0.99;62.37
12666;BME280;58531;59.050;17.416;2023-02-19T08:53:08;99852.25;;;-0.92;62.22
12666;BME280;58531;59.050;17.416;2023-02-19T08:55:36;99854.84;;;-0.85;61.51
12666;BME280;58531;59.050;17.416;2023-02-19T08:58:03;99859.72;;;-0.87;61.59
12666;BME280;58531;59.050;17.416;2023-02-19T09:00:31;99850.75;;;-0.86;61.93
12666;BME280;58531;59.050;17.416;2023-02-19T09:02:57;99848.09;;;-0.83;61.18
12666;BME280;58531;59.050;17.416;2023-02-19T09:05:24;99854.47;;;-0.77;61.89
12666;BME280;58531;59.050;17.416;2023-02-19T09:07:51;99852.22;;;-0.75;61.75
12666;BME280;58531;59.050;17.416;2023-02-19T09:10:19;99854.44;;;-0.63;60.53
12666;BME280;58531;59.050;17.416;2023-02-19T09:12:46;99858.16;;;-0.53;60.36
12666;BME280;58531;59.050;17.416;2023-02-19T09:15:13;99852.19;;;-0.54;60.97
12666;BME280;58531;59.050;17.416;2023-02-19T09:17:40;99860.03;;;-0.50;60.92
12666;BME280;58531;59.050;17.416;2023-02-19T09:20:07;99856.66;;;-0.47;59.72
12666;BME280;58531;59.050;17.416;2023-02-19T09:22:35;99856.28;;;-0.49;60.28
12666;BME280;58531;59.050;17.416;2023-02-19T09:25:02;99866.38;;;-0.48;61.27
12666;BME280;58531;59.050;17.416;2023-02-19T09:27:30;99868.25;;;-0.41;59.37
12666;BME280;58531;59.050;17.416;2023-02-19T09:29:57;99861.13;;;-0.44;59.86
12666;BME280;58531;59.050;17.416;2023-02-19T09:32:24;99865.25;;;-0.36;59.42
12666;BME280;58531;59.050;17.416;2023-02-19T09:34:51;99869.34;;;-0.35;59.63
12666;BME280;58531;59.050;17.416;2023-02-19T09:37:18;99874.97;;;-0.37;58.35
12666;BME280;58531;59.050;17.416;2023-02-19T09:39:45;99876.06;;;-0.31;58.91
12666;BME280;58531;59.050;17.416;2023-02-19T09:42:14;99880.53;;;-0.24;57.42
12666;BME280;58531;59.050;17.416;2023-02-19T09:44:46;99886.91;;;-0.18;57.83
12666;BME280;58531;59.050;17.416;2023-02-19T09:47:16;99889.53;;;-0.18;57.62
12666;BME280;58531;59.050;17.416;2023-02-19T09:49:45;99892.16;;;-0.18;58.44
12666;BME280;58531;59.050;17.416;2023-02-19T09:52:25;99897.00;;;-0.13;58.27
12666;BME280;58531;59.050;17.416;2023-02-19T09:54:56;99895.50;;;-0.07;59.43
12666;BME280;58531;59.050;17.416;2023-02-19T09:57:27;99900.34;;;-0.03;57.45
12666;BME280;58531;59.050;17.416;2023-02-19T10:00:01;99906.69;;;0.03;58.00
12666;BME280;58531;59.050;17.416;2023-02-19T10:02:29;99911.16;;;0.10;57.50
12666;BME280;58531;59.050;17.416;2023-02-19T10:04:57;99905.53;;;0.08;57.06
12666;BME280;58531;59.050;17.416;2023-02-19T10:07:25;99906.28;;;0.15;58.31
12666;BME280;58531;59.050;17.416;2023-02-19T10:09:56;99912.63;;;0.21;57.22
12666;BME280;58531;59.050;17.416;2023-02-19T10:12:29;99911.13;;;0.24;57.29
12666;BME280;58531;59.050;17.416;2023-02-19T10:15:03;99909.19;;;0.31;56.16
12666;BME280;58531;59.050;17.416;2023-02-19T10:17:34;99911.06;;;0.34;56.80
12666;BME280;58531;59.050;17.416;2023-02-19T10:20:02;99921.53;;;0.41;56.67
12666;BME280;58531;59.050;17.416;2023-02-19T10:22:30;99917.44;;;0.37;55.76
12666;BME280;58531;59.050;17.416;2023-02-19T10:24:58;99923.78;;;0.39;55.93
12666;BME280;58531;59.050;17.416;2023-02-19T10:27:25;99909.50;;;0.47;54.71
12666;BME280;58531;59.050;17.416;2023-02-19T10:29:55;99928.63;;;0.48;55.14
12666;BME280;58531;59.050;17.416;2023-02-19T10:32:25;99914.78;;;0.44;54.82
12666;BME280;58531;59.050;17.416;2023-02-19T10:35:08;99924.47;;;0.50;54.88
12666;BME280;58531;59.050;17.416;2023-02-19T10:37:40;99927.88;;;0.47;56.25
12666;BME280;58531;59.050;17.416;2023-02-19T10:40:14;99922.91;;;0.60;55.07
12666;BME280;58531;59.050;17.416;2023-02-19T10:42:45;99923.66;;;0.67;55.42
12666;BME280;58531;59.050;17.416;2023-02-19T10:45:17;99928.50;;;0.72;54.12
12666;BME280;58531;59.050;17.416;2023-02-19T10:47:47;99925.88;;;0.72;53.50
12666;BME280;58531;59.050;17.416;2023-02-19T10:50:21;99927.41;;;0.66;55.19
12666;BME280;58531;59.050;17.416;2023-02-19T10:52:51;99931.09;;;0.76;53.93
12666;BME280;58531;59.050;17.416;2023-02-19T10:55:26;99933.69;;;0.79;52.73
12666;BME280;58531;59.050;17.416;2023-02-19T10:57:54;99933.69;;;0.79;52.92
12666;BME280;58531;59.050;17.416;2023-02-19T11:00:23;99937.03;;;0.83;54.32
12666;BME280;58531;59.050;17.416;2023-02-19T11:03:16;99942.25;;;0.90;53.47
12666;BME280;58531;59.050;17.416;2023-02-19T11:05:53;99934.72;;;0.92;53.59
12666;BME280;58531;59.050;17.416;2023-02-19T11:08:23;99936.59;;;0.95;52.50
12666;BME280;58531;59.050;17.416;2023-02-19T11:10:50;99940.66;;;1.03;52.61
12666;BME280;58531;59.050;17.416;2023-02-19T11:13:23;99939.22;;;0.99;51.88
12666;BME280;58531;59.050;17.416;2023-02-19T11:15:53;99942.19;;;1.01;52.41
12666;BME280;58531;59.050;17.416;2023-02-19T11:18:23;99938.41;;;1.05;54.53
12666;BME280;58531;59.050;17.416;2023-02-19T11:20:52;99953.66;;;1.20;53.90
12666;BME280;58531;59.050;17.416;2023-02-19T11:23:24;99944.59;;;1.28;52.25
12666;BME280;58531;59.050;17.416;2023-02-19T11:25:53;99938.63;;;1.24;52.62
12666;BME280;58531;59.050;17.416;2023-02-19T11:28:31;99934.47;;;1.27;52.76
12666;BME280;58531;59.050;17.416;2023-02-19T11:31:23;99945.78;;;1.20;53.31
12666;BME280;58531;59.050;17.416;2023-02-19T11:33:55;99952.53;;;1.21;52.08
12666;BME280;58531;59.050;17.416;2023-02-19T11:36:31;99951.41;;;1.26;51.83
12666;BME280;58531;59.050;17.416;2023-02-19T11:39:20;99927.28;;;1.31;51.69
12666;BME280;58531;59.050;17.416;2023-02-19T11:42:09;99949.44;;;1.33;52.86
12666;BME280;58531;59.050;17.416;2023-02-19T11:44:45;99948.25;;;1.38;51.32
12666;BME280;58531;59.050;17.416;2023-02-19T11:50:26;99941.91;;;1.35;52.47
12666;BME280;58531;59.050;17.416;2023-02-19T11:53:08;99953.94;;;1.36;51.23
12666;BME280;58531;59.050;17.416;2023-02-19T11:55:48;99941.88;;;1.39;50.61
12666;BME280;58531;59.050;17.416;2023-02-19T11:58:59;99957.66;;;1.39;51.14
12666;BME280;58531;59.050;17.416;2023-02-19T12:01:43;99952.34;;;1.46;50.78
12666;BME280;58531;59.050;17.416;2023-02-19T12:04:31;99959.50;;;1.42;50.78
12666;BME280;58531;59.050;17.416;2023-02-19T12:07:13;99965.13;;;1.44;52.32
12666;BME280;58531;59.050;17.416;2023-02-19T12:09:57;99970.66;;;1.56;51.52
12666;BME280;58531;59.050;17.416;2023-02-19T12:12:37;99977.00;;;1.62;50.28
12666;BME280;58531;59.050;17.416;2023-02-19T12:15:19;99964.97;;;1.61;50.16
12666;BME280;58531;59.050;17.416;2023-02-19T12:18:02;99965.75;;;1.58;50.68
12666;BME280;58531;59.050;17.416;2023-02-19T12:20:41;99976.97;;;1.66;50.90
12666;BME280;58531;59.050;17.416;2023-02-19T12:23:37;99963.75;;;1.73;49.89
12666;BME280;58531;59.050;17.416;2023-02-19T12:26:19;99968.59;;;1.78;50.24
12666;BME280;58531;59.050;17.416;2023-02-19T12:28:58;99965.91;;;1.81;49.30
12666;BME280;58531;59.050;17.416;2023-02-19T12:31:38;99982.81;;;1.84;50.09
12666;BME280;58531;59.050;17.416;2023-02-19T12:34:31;99970.78;;;1.83;50.25
12666;BME280;58531;59.050;17.416;2023-02-19T12:37:11;99970.06;;;1.79;49.70
12666;BME280;58531;59.050;17.416;2023-02-19T12:39:49;99970.41;;;1.81;50.95
12666;BME280;58531;59.050;17.416;2023-02-19T12:42:34;99966.16;;;1.94;50.99
12666;BME280;58531;59.050;17.416;2023-02-19T12:45:05;99949.22;;;1.95;49.79
12666;BME280;58531;59.050;17.416;2023-02-19T12:47:38;99956.34;;;1.98;50.71
12666;BME280;58531;59.050;17.416;2023-02-19T12:50:15;99961.97;;;2.00;50.47
12666;BME280;58531;59.050;17.416;2023-02-19T12:52:48;99957.09;;;1.98;51.29
12666;BME280;58531;59.050;17.416;2023-02-19T12:55:20;99966.09;;;2.01;51.18
12666;BME280;58531;59.050;17.416;2023-02-19T12:57:49;99969.06;;;2.03;50.54
12666;BME280;58531;59.050;17.416;2023-02-19T13:00:27;99966.72;;;2.12;49.78
12666;BME280;58531;59.050;17.416;2023-02-19T13:02:59;99965.66;;;2.06;49.80
12666;BME280;58531;59.050;17.416;2023-02-19T13:05:35;99972.78;;;2.05;49.38
12666;BME280;58531;59.050;17.416;2023-02-19T13:08:06;99968.94;;;2.13;50.09
12666;BME280;58531;59.050;17.416;2023-02-19T13:10:40;99957.75;;;2.06;48.75
12666;BME280;58531;59.050;17.416;2023-02-19T13:13:12;99961.53;;;2.05;49.04
12666;BME280;58531;59.050;17.416;2023-02-19T13:15:42;99966.00;;;2.08;48.85